Time;durP1;ratioP1;P1;durP2;ratioP2;P2;SDS_P1;SDS_P2;PMS_P1;PMS_P2;Temp;Humidity;BMP_temperature;BMP_pressure;BME280_temperature;BME280_humidity;BME280_pressure;Samples;Min_cycle;Max_cycle;Signal;HPM_P1;HPM_P2
2023/12/29 00:02:21;;;;;;;1.23;1.13;;;;;;;10.04;69.67;96731.47;4976866;28;20110;-81
2023/12/29 00:04:48;;;;;;;2.17;0.93;;;;;;;10.05;70.07;96735.69;4976132;28;20082;-79
2023/12/29 00:07:16;;;;;;;0.75;0.75;;;;;;;10.06;69.53;96739.94;4977104;28;20050;-80
2023/12/29 00:09:48;;;;;;;1.55;0.93;;;;;;;10.07;69.05;96731.94;4977321;28;20054;-79
2023/12/29 00:12:17;;;;;;;0.98;0.90;;;;;;;10.09;68.86;96736.97;4977166;28;20058;-79
2023/12/29 00:14:45;;;;;;;2.08;1.15;;;;;;;10.09;68.90;96731.75;4976553;28;20075;-79
2023/12/29 00:17:13;;;;;;;1.30;1.08;;;;;;;10.10;68.81;96736.81;4975453;28;20059;-79
2023/12/29 00:19:40;;;;;;;1.02;1.00;;;;;;;10.09;68.91;96729.94;4976564;28;20051;-79
2023/12/29 00:22:08;;;;;;;0.90;0.90;;;;;;;10.10;70.38;96728.97;4976338;28;20476;-80
2023/12/29 00:24:36;;;;;;;1.42;0.90;;;;;;;10.10;69.79;96726.38;4976431;28;20478;-79
2023/12/29 00:27:04;;;;;;;1.08;0.98;;;;;;;10.11;70.42;96717.56;4974892;28;20479;-81
2023/12/29 00:29:33;;;;;;;1.20;1.10;;;;;;;10.11;69.21;96722.78;4974748;28;20053;-82
2023/12/29 00:32:02;;;;;;;1.58;1.08;;;;;;;10.14;69.82;96712.97;4974701;28;20054;-82
2023/12/29 00:34:31;;;;;;;0.80;0.80;;;;;;;10.11;69.18;96701.91;4974865;28;20058;-82
2023/12/29 00:36:59;;;;;;;0.80;0.80;;;;;;;10.12;69.15;96713.16;4974858;28;20082;-82
2023/12/29 00:39:30;;;;;;;1.60;1.48;;;;;;;10.11;69.60;96707.13;4974326;28;20419;-81
2023/12/29 00:41:58;;;;;;;1.88;1.50;;;;;;;10.12;68.52;96705.31;4974600;28;20058;-81
2023/12/29 00:44:26;;;;;;;2.78;1.40;;;;;;;10.13;68.19;96713.97;4988844;28;20110;-79
2023/12/29 00:46:55;;;;;;;2.05;1.30;;;;;;;10.13;67.82;96708.78;4978518;28;20055;-80
2023/12/29 00:49:22;;;;;;;1.98;1.30;;;;;;;10.14;69.54;96702.56;4974738;28;20139;-82
2023/12/29 00:51:50;;;;;;;1.42;1.33;;;;;;;10.14;69.02;96705.16;4974098;28;20137;-81
2023/12/29 00:54:18;;;;;;;2.30;1.63;;;;;;;10.15;70.12;96710.22;4974600;28;20093;-81
2023/12/29 00:56:49;;;;;;;1.50;1.40;;;;;;;10.15;68.30;96704.19;4974026;28;20145;-82
2023/12/29 00:59:16;;;;;;;2.00;1.60;;;;;;;10.15;69.24;96699.78;4974429;28;20134;-82
2023/12/29 01:01:44;;;;;;;1.77;1.67;;;;;;;10.14;69.42;96692.94;4974158;28;20065;-81
2023/12/29 01:04:14;;;;;;;2.38;1.60;;;;;;;10.15;70.03;96699.78;4974153;28;20053;-82
2023/12/29 01:06:42;;;;;;;6.50;1.92;;;;;;;10.16;69.77;96701.38;4973948;28;20082;-81
2023/12/29 01:09:11;;;;;;;1.65;1.55;;;;;;;10.17;69.48;96697.00;4973753;28;20050;-82
2023/12/29 01:11:38;;;;;;;2.42;1.50;;;;;;;10.18;70.07;96701.22;4973709;28;20146;-82
2023/12/29 01:14:06;;;;;;;2.25;1.45;;;;;;;10.20;69.14;96696.66;4974279;28;20057;-81
2023/12/29 01:16:34;;;;;;;1.65;1.55;;;;;;;10.20;71.87;96687.03;4973930;28;20525;-81
2023/12/29 01:19:01;;;;;;;2.00;1.48;;;;;;;10.20;69.97;96697.44;4973995;28;20082;-82
2023/12/29 01:21:33;;;;;;;1.50;1.40;;;;;;;10.19;70.89;96706.25;4973379;28;20456;-82
2023/12/29 01:24:03;;;;;;;1.17;1.08;;;;;;;10.17;69.44;96700.41;4973689;28;20142;-82
2023/12/29 01:26:31;;;;;;;2.15;1.17;;;;;;;10.14;68.49;96694.72;4973800;28;20082;-81
2023/12/29 01:28:58;;;;;;;1.38;1.27;;;;;;;10.09;68.12;96700.47;4973843;28;20058;-81
2023/12/29 01:31:30;;;;;;;2.00;1.67;;;;;;;10.04;67.88;96701.00;4973318;28;20061;-82
2023/12/29 01:33:58;;;;;;;2.13;1.45;;;;;;;10.02;68.20;96704.78;4973595;28;20050;-81
2023/12/29 01:36:25;;;;;;;1.27;1.17;;;;;;;9.98;68.23;96704.31;4973439;28;20530;-81
2023/12/29 01:38:54;;;;;;;1.90;1.67;;;;;;;9.94;68.82;96702.22;4973227;28;20057;-82
2023/12/29 01:41:22;;;;;;;1.80;1.70;;;;;;;9.95;69.87;96709.06;4973317;28;20061;-81
2023/12/29 01:44:20;;;;;;;2.80;1.50;;;;;;;9.97;71.68;96714.91;4973442;28;20050;-82
2023/12/29 01:46:50;;;;;;;1.70;1.60;;;;;;;9.95;69.76;96717.69;4973298;28;20061;-81
2023/12/29 01:49:18;;;;;;;2.28;1.50;;;;;;;9.94;69.40;96712.66;4973634;28;20053;-81
2023/12/29 01:51:49;;;;;;;1.58;1.48;;;;;;;9.90;70.07;96705.19;4972247;28;20050;-81
2023/12/29 01:54:20;;;;;;;3.83;1.85;;;;;;;9.87;70.57;96702.94;4973533;28;20467;-82
2023/12/29 01:56:49;;;;;;;2.05;1.83;;;;;;;9.88;70.61;96703.72;4973379;28;20046;-82
2023/12/29 01:59:17;;;;;;;1.90;1.70;;;;;;;9.87;70.25;96700.31;4973184;28;20055;-82
2023/12/29 02:01:54;;;;;;;4.88;2.55;;;;;;;9.87;70.03;96697.72;4972981;28;20051;-81
2023/12/29 02:04:24;;;;;;;2.63;1.83;;;;;;;9.90;72.01;96700.00;4975528;28;20066;-81
2023/12/29 02:06:52;;;;;;;2.80;2.08;;;;;;;9.94;72.04;96690.00;4973275;28;20058;-81
2023/12/29 02:09:21;;;;;;;2.67;2.10;;;;;;;9.96;72.22;96689.84;4973371;28;20046;-82
2023/12/29 02:11:49;;;;;;;3.22;1.70;;;;;;;9.96;71.89;96685.44;4972703;28;20061;-81
2023/12/29 02:14:19;;;;;;;2.22;1.83;;;;;;;9.96;72.57;96667.19;4973525;28;20086;-81
2023/12/29 02:16:55;;;;;;;1.92;1.67;;;;;;;9.97;72.53;96673.22;4973190;28;20051;-82
2023/12/29 02:19:41;;;;;;;1.88;1.75;;;;;;;9.95;71.74;96672.56;4973227;28;20142;-82
2023/12/29 02:22:09;;;;;;;2.08;1.88;;;;;;;9.93;70.35;96664.13;4972696;28;20182;-82
2023/12/29 02:24:39;;;;;;;2.65;1.95;;;;;;;9.94;71.58;96670.97;4973240;28;20113;-81
2023/12/29 02:27:24;;;;;;;2.42;1.80;;;;;;;9.94;70.72;96684.00;4973127;28;20133;-81
2023/12/29 02:29:59;;;;;;;2.53;2.03;;;;;;;9.94;69.32;96676.19;4972980;28;20047;-81
2023/12/29 02:32:28;;;;;;;2.13;1.92;;;;;;;9.92;70.19;96680.75;4972832;28;20058;-82
2023/12/29 02:34:57;;;;;;;2.92;2.30;;;;;;;9.92;69.24;96680.75;4973142;28;20051;-82
2023/12/29 02:37:26;;;;;;;2.22;2.03;;;;;;;9.92;69.59;96678.94;4973161;28;20463;-81
2023/12/29 02:39:55;;;;;;;2.08;1.92;;;;;;;9.93;70.35;96672.75;4973098;28;20055;-81
2023/12/29 02:42:24;;;;;;;2.35;2.15;;;;;;;9.94;69.23;96684.00;4972685;28;20051;-81
2023/12/29 02:44:52;;;;;;;2.53;2.33;;;;;;;9.95;68.73;96680.38;4973108;28;20074;-81
2023/12/29 02:47:21;;;;;;;2.28;2.08;;;;;;;9.97;69.74;96686.25;4972808;28;20138;-82
2023/12/29 02:49:49;;;;;;;4.15;2.47;;;;;;;9.99;69.13;96673.84;4972949;28;20050;-81
2023/12/29 02:52:17;;;;;;;2.17;1.83;;;;;;;9.99;68.19;96674.69;4972701;28;20055;-81
2023/12/29 02:54:45;;;;;;;2.58;2.22;;;;;;;9.99;68.42;96679.88;4973036;28;20087;-81
2023/12/29 02:57:12;;;;;;;2.03;1.83;;;;;;;10.00;67.94;96676.28;4972950;28;20456;-82
2023/12/29 02:59:41;;;;;;;3.88;2.00;;;;;;;10.00;67.38;96675.47;4972756;28;20046;-82
2023/12/29 03:02:09;;;;;;;2.70;2.38;;;;;;;10.00;68.32;96672.88;4974197;28;20062;-80
2023/12/29 03:04:36;;;;;;;2.60;2.20;;;;;;;10.01;69.44;96671.88;4976896;28;20110;-82
2023/12/29 03:07:04;;;;;;;2.90;2.40;;;;;;;10.01;68.92;96666.66;4991445;28;20143;-80
2023/12/29 03:09:32;;;;;;;2.55;2.35;;;;;;;10.02;69.23;96663.88;4999683;28;20034;-81
2023/12/29 03:11:59;;;;;;;2.55;2.20;;;;;;;10.01;68.26;96657.03;4987358;28;20056;-82
2023/12/29 03:14:27;;;;;;;4.13;2.30;;;;;;;10.03;68.81;96664.69;4977609;28;20055;-81
2023/12/29 03:16:57;;;;;;;2.80;2.42;;;;;;;10.01;68.05;96664.06;4976364;28;20059;-82
2023/12/29 03:19:24;;;;;;;6.30;2.47;;;;;;;10.01;69.87;96659.66;4976429;28;20051;-81
2023/12/29 03:21:53;;;;;;;2.03;1.92;;;;;;;10.02;69.57;96650.84;4975695;28;20050;-82
2023/12/29 03:24:22;;;;;;;3.30;2.33;;;;;;;10.00;69.70;96655.44;4976196;28;20055;-81
2023/12/29 03:26:49;;;;;;;2.65;2.42;;;;;;;10.00;68.94;96644.22;4976113;28;20039;-82
2023/12/29 03:29:17;;;;;;;2.83;2.63;;;;;;;9.96;68.78;96642.94;4975997;28;20150;-81
2023/12/29 03:31:44;;;;;;;2.50;2.20;;;;;;;9.95;68.51;96639.53;4975812;28;20063;-81
2023/12/29 03:34:14;;;;;;;2.42;2.22;;;;;;;9.95;68.84;96649.13;4975924;28;20055;-82
2023/12/29 03:36:41;;;;;;;1.80;1.70;;;;;;;9.96;68.71;96642.94;4975853;28;20046;-81
2023/12/29 03:39:09;;;;;;;2.45;2.00;;;;;;;9.96;68.62;96637.72;4975834;28;20130;-81
2023/12/29 03:41:38;;;;;;;3.65;2.05;;;;;;;9.96;68.55;96637.72;4975705;28;20050;-81
2023/12/29 03:44:06;;;;;;;5.35;1.90;;;;;;;9.96;69.29;96627.31;4988955;28;20061;-80
2023/12/29 03:46:34;;;;;;;3.25;2.50;;;;;;;9.98;69.34;96630.53;4983963;28;20070;-81
2023/12/29 03:49:02;;;;;;;3.60;2.00;;;;;;;9.98;69.68;96636.56;4975817;28;20508;-81
2023/12/29 03:51:32;;;;;;;4.28;2.28;;;;;;;9.99;69.86;96639.97;4975316;28;20717;-81
2023/12/29 03:53:59;;;;;;;2.60;2.30;;;;;;;9.99;70.03;96642.56;4975539;28;20110;-81
2023/12/29 03:56:27;;;;;;;2.35;2.00;;;;;;;10.00;69.71;96644.22;4975310;28;20055;-82
2023/12/29 03:58:54;;;;;;;4.57;1.80;;;;;;;10.00;69.48;96644.22;4975336;28;20061;-81
2023/12/29 04:01:22;;;;;;;2.38;2.17;;;;;;;9.99;69.35;96637.34;4974814;28;20051;-81
2023/12/29 04:03:50;;;;;;;2.72;2.13;;;;;;;9.97;69.94;96636.72;4975200;28;20495;-81
2023/12/29 04:06:18;;;;;;;2.30;1.73;;;;;;;9.97;69.86;96623.69;4975006;28;20422;-81
2023/12/29 04:08:47;;;;;;;1.95;1.60;;;;;;;9.98;69.75;96638.34;4975387;28;20053;-81
2023/12/29 04:11:14;;;;;;;3.20;1.92;;;;;;;9.98;70.58;96636.56;4974930;28;20054;-80
2023/12/29 04:13:42;;;;;;;2.15;1.95;;;;;;;9.99;69.96;96632.97;4974689;28;20057;-82
2023/12/29 04:16:10;;;;;;;1.90;1.70;;;;;;;9.96;71.11;96632.50;4975027;28;20135;-81
2023/12/29 04:18:37;;;;;;;1.67;1.58;;;;;;;9.96;70.46;96629.91;4974938;28;20503;-81
2023/12/29 04:21:05;;;;;;;2.42;1.63;;;;;;;9.96;70.44;96617.69;4974769;28;20051;-82
2023/12/29 04:23:32;;;;;;;3.10;1.85;;;;;;;9.98;70.36;96618.31;4974764;28;20575;-81
2023/12/29 04:26:01;;;;;;;1.60;1.50;;;;;;;9.99;70.33;96611.31;4974812;28;20075;-81
2023/12/29 04:28:29;;;;;;;1.52;1.42;;;;;;;9.99;70.09;96617.34;4974858;28;20094;-82
2023/12/29 04:30:56;;;;;;;2.60;1.90;;;;;;;9.97;69.94;96608.06;4974549;28;20142;-82
2023/12/29 04:33:24;;;;;;;1.92;1.67;;;;;;;9.97;69.98;96608.06;4974441;28;20051;-82
2023/12/29 04:35:52;;;;;;;3.60;1.88;;;;;;;9.99;70.25;96613.91;4974718;28;20149;-80
2023/12/29 04:38:19;;;;;;;7.30;1.75;;;;;;;10.00;69.96;96615.53;4974877;28;20061;-82
2023/12/29 04:40:47;;;;;;;1.98;1.88;;;;;;;10.01;70.21;96623.16;4974431;28;20047;-82
2023/12/29 04:43:16;;;;;;;2.45;1.70;;;;;;;10.00;70.40;96618.16;4974140;28;20078;-81
2023/12/29 04:45:44;;;;;;;1.90;1.73;;;;;;;9.98;70.09;96620.94;4974207;28;20081;-81
2023/12/29 04:48:12;;;;;;;1.95;1.75;;;;;;;9.98;70.26;96620.13;4974533;28;20054;-82
2023/12/29 04:50:39;;;;;;;2.20;1.73;;;;;;;9.95;70.50;96625.66;4974350;28;20051;-82
2023/12/29 04:53:07;;;;;;;1.90;1.80;;;;;;;9.94;71.24;96622.25;4973778;28;20055;-82
2023/12/29 04:55:34;;;;;;;2.03;1.83;;;;;;;9.93;71.13;96623.25;4974159;28;20051;-81
2023/12/29 04:58:02;;;;;;;2.72;1.98;;;;;;;9.89;70.73;96633.22;4974000;28;20520;-81
2023/12/29 05:00:31;;;;;;;2.03;1.83;;;;;;;9.91;71.45;96635.66;4974043;28;20081;-81
2023/12/29 05:02:59;;;;;;;1.95;1.75;;;;;;;9.89;70.89;96630.59;4974040;28;20085;-82
2023/12/29 05:05:26;;;;;;;1.85;1.63;;;;;;;9.90;71.66;96636.63;4974175;28;20058;-82
2023/12/29 05:07:54;;;;;;;1.88;1.42;;;;;;;9.88;71.32;96623.78;4974155;28;20057;-80
2023/12/29 05:10:21;;;;;;;1.48;1.38;;;;;;;9.92;72.50;96628.63;4973994;28;20138;-82
2023/12/29 05:12:49;;;;;;;3.55;2.03;;;;;;;9.93;72.70;96633.69;4973331;28;20432;-82
2023/12/29 05:15:17;;;;;;;1.75;1.65;;;;;;;9.93;72.33;96633.69;4974115;28;20122;-82
2023/12/29 05:17:45;;;;;;;1.77;1.52;;;;;;;9.92;71.40;96633.84;4973803;28;20495;-81
2023/12/29 05:20:13;;;;;;;2.20;1.90;;;;;;;9.94;73.37;96626.66;4973733;28;20085;-81
2023/12/29 05:22:41;;;;;;;2.30;2.10;;;;;;;9.95;72.85;96631.72;4973419;28;20051;-81
2023/12/29 05:25:09;;;;;;;2.05;1.80;;;;;;;9.96;71.81;96622.91;4973568;28;20074;-81
2023/12/29 05:27:36;;;;;;;1.63;1.27;;;;;;;9.96;71.58;96630.72;4973350;28;20050;-81
2023/12/29 05:30:07;;;;;;;1.98;1.60;;;;;;;9.96;71.67;96632.50;4974113;28;20050;-82
2023/12/29 05:32:34;;;;;;;1.65;1.55;;;;;;;9.96;71.51;96637.72;4973423;28;20089;-81
2023/12/29 05:35:04;;;;;;;2.63;1.50;;;;;;;9.94;71.66;96637.09;4973666;28;20090;-82
2023/12/29 05:37:32;;;;;;;3.55;2.50;;;;;;;9.94;72.72;96639.69;4973627;28;20054;-82
2023/12/29 05:39:59;;;;;;;3.95;1.63;;;;;;;9.95;72.70;96643.91;4973480;28;20145;-81
2023/12/29 05:42:27;;;;;;;1.73;1.63;;;;;;;9.93;73.03;96645.88;4973265;28;20054;-81
2023/12/29 05:44:54;;;;;;;4.00;2.22;;;;;;;9.94;72.89;96644.91;4974659;28;20046;-81
2023/12/29 05:47:22;;;;;;;5.07;2.20;;;;;;;9.93;73.57;96640.66;4973503;28;20141;-81
2023/12/29 05:49:49;;;;;;;2.00;1.80;;;;;;;9.94;73.82;96645.72;4973799;28;20078;-81
2023/12/29 05:52:18;;;;;;;2.00;1.80;;;;;;;9.94;73.50;96635.28;4973417;28;20055;-82
2023/12/29 05:54:46;;;;;;;1.77;1.67;;;;;;;9.93;73.43;96636.28;4988236;28;20043;-80
2023/12/29 05:57:15;;;;;;;4.32;1.60;;;;;;;9.91;72.82;96643.47;5014465;23;20050;-78
2023/12/29 05:59:42;;;;;;;1.80;1.70;;;;;;;9.90;72.74;96644.44;4994481;28;20077;-78
2023/12/29 06:02:10;;;;;;;1.88;1.77;;;;;;;9.89;73.29;96633.22;4978056;28;20073;-78
2023/12/29 06:04:37;;;;;;;2.88;1.70;;;;;;;9.93;75.11;96627.63;4975176;28;20510;-77
2023/12/29 06:07:05;;;;;;;2.33;1.65;;;;;;;9.94;75.00;96634.50;4974951;28;20137;-77
2023/12/29 06:09:34;;;;;;;4.20;2.20;;;;;;;9.93;74.32;96643.28;4974164;28;20074;-77
2023/12/29 06:12:01;;;;;;;2.28;1.88;;;;;;;9.94;74.10;96642.31;4973727;28;20077;-78
2023/12/29 06:14:29;;;;;;;2.50;1.75;;;;;;;9.94;73.98;96647.50;4973364;28;20511;-77
2023/12/29 06:16:57;;;;;;;2.03;1.83;;;;;;;9.95;74.07;96644.75;4973579;28;20082;-78
2023/12/29 06:19:24;;;;;;;1.77;1.40;;;;;;;9.94;75.07;96647.50;4973193;28;20061;-77
2023/12/29 06:21:52;;;;;;;2.17;1.73;;;;;;;9.95;75.11;96649.94;4973149;28;20504;-77
2023/12/29 06:24:19;;;;;;;3.08;2.20;;;;;;;9.98;74.15;96651.38;4973347;28;20051;-78
2023/12/29 06:26:49;;;;;;;2.58;2.13;;;;;;;9.98;74.07;96649.59;4973083;28;20523;-77
2023/12/29 06:29:16;;;;;;;2.05;1.90;;;;;;;9.99;74.35;96653.84;4973528;28;20050;-79
2023/12/29 06:31:44;;;;;;;2.75;1.95;;;;;;;9.98;74.22;96643.56;4972773;28;20105;-79
2023/12/29 06:34:12;;;;;;;4.28;1.90;;;;;;;9.94;73.96;96644.91;4973181;28;20055;-77
2023/12/29 06:36:40;;;;;;;1.85;1.65;;;;;;;9.89;73.76;96646.25;4974207;28;20500;-77
2023/12/29 06:39:07;;;;;;;2.65;1.95;;;;;;;9.88;73.51;96649.84;4978777;28;20142;-77
2023/12/29 06:41:34;;;;;;;3.28;1.80;;;;;;;9.88;73.44;96646.41;4978921;28;20097;-78
2023/12/29 06:44:03;;;;;;;2.03;1.85;;;;;;;9.88;74.69;96649.00;4976964;28;20142;-77
2023/12/29 06:46:30;;;;;;;1.58;1.48;;;;;;;9.89;74.64;96638.44;4976482;28;20057;-77
2023/12/29 06:48:57;;;;;;;1.83;1.73;;;;;;;9.91;74.29;96643.47;4976827;28;20139;-77
2023/12/29 06:51:25;;;;;;;3.70;2.05;;;;;;;9.93;74.23;96638.06;4976437;28;20047;-77
2023/12/29 06:53:52;;;;;;;2.47;1.80;;;;;;;9.93;73.91;96645.88;4976710;28;20109;-77
2023/12/29 06:56:20;;;;;;;1.80;1.70;;;;;;;9.91;73.74;96640.88;4976103;28;20083;-79
2023/12/29 06:58:48;;;;;;;2.10;1.88;;;;;;;9.91;74.18;96646.06;4976318;28;20057;-79
2023/12/29 07:01:17;;;;;;;1.85;1.73;;;;;;;9.90;74.35;96645.28;4976465;28;20145;-79
2023/12/29 07:03:44;;;;;;;1.80;1.70;;;;;;;9.90;74.31;96650.47;4977642;28;20130;-79
2023/12/29 07:06:12;;;;;;;2.33;2.00;;;;;;;9.89;74.36;96650.66;4978178;28;20134;-80
2023/12/29 07:08:40;;;;;;;2.65;1.95;;;;;;;9.89;73.71;96638.44;4977889;28;20058;-80
2023/12/29 07:11:10;;;;;;;2.08;1.88;;;;;;;9.88;75.07;96646.41;4977570;28;20468;-80
2023/12/29 07:13:38;;;;;;;1.92;1.83;;;;;;;9.88;75.58;96631.59;4976935;28;20508;-79
2023/12/29 07:16:06;;;;;;;1.83;1.73;;;;;;;9.90;76.08;96623.59;4977224;28;20058;-79
2023/12/29 07:18:34;;;;;;;2.00;1.80;;;;;;;9.92;75.76;96639.06;4977104;28;20047;-80
2023/12/29 07:21:02;;;;;;;1.58;1.48;;;;;;;9.92;75.14;96633.84;4976696;28;20471;-80
2023/12/29 07:23:30;;;;;;;2.03;1.80;;;;;;;9.92;74.54;96633.84;4976619;28;20086;-80
2023/12/29 07:25:57;;;;;;;2.53;1.60;;;;;;;9.90;74.78;96636.63;4978061;28;20271;-80
2023/12/29 07:28:25;;;;;;;3.38;1.60;;;;;;;9.88;74.52;96631.59;4977666;28;20051;-79
2023/12/29 07:30:53;;;;;;;1.70;1.60;;;;;;;9.88;74.83;96621.19;4976582;28;20051;-80
2023/12/29 07:33:20;;;;;;;4.38;1.88;;;;;;;9.89;74.62;96620.19;4976041;28;20047;-80
2023/12/29 07:35:50;;;;;;;1.38;1.27;;;;;;;9.91;75.39;96622.63;4975941;28;20056;-80
2023/12/29 07:38:17;;;;;;;2.10;1.88;;;;;;;9.92;75.61;96637.25;4975503;28;20117;-80
2023/12/29 07:40:47;;;;;;;1.38;1.30;;;;;;;9.94;75.03;96634.50;4976226;28;20524;-78
2023/12/29 07:43:15;;;;;;;2.70;1.48;;;;;;;9.94;74.64;96645.72;4976660;28;20415;-78
2023/12/29 07:45:43;;;;;;;1.67;1.58;;;;;;;9.97;74.24;96636.72;4976958;28;20050;-78
2023/12/29 07:48:10;;;;;;;1.63;1.30;;;;;;;9.99;74.24;96643.41;4975546;28;20050;-78
2023/12/29 07:50:39;;;;;;;1.58;1.48;;;;;;;10.02;74.37;96642.22;4975593;28;20054;-78
2023/12/29 07:53:08;;;;;;;2.17;1.55;;;;;;;10.04;74.48;96646.28;4975406;28;20046;-78
2023/12/29 07:55:39;;;;;;;1.30;1.20;;;;;;;10.06;73.65;96639.09;4975796;28;20055;-78
2023/12/29 07:58:09;;;;;;;1.88;1.60;;;;;;;10.11;74.32;96646.38;4975434;28;20057;-78
2023/12/29 08:00:37;;;;;;;1.63;1.52;;;;;;;10.16;74.07;96659.69;4976019;28;20059;-78
2023/12/29 08:03:07;;;;;;;1.52;1.42;;;;;;;10.17;73.46;96653.50;4975781;28;20047;-78
2023/12/29 08:05:35;;;;;;;1.05;1.00;;;;;;;10.22;74.37;96655.56;4975471;28;20435;-78
2023/12/29 08:08:02;;;;;;;1.75;1.40;;;;;;;10.24;73.45;96649.19;4975772;28;20046;-78
2023/12/29 08:10:32;;;;;;;1.80;1.50;;;;;;;10.25;73.09;96649.97;4975709;28;20096;-78
2023/12/29 08:13:00;;;;;;;2.33;1.13;;;;;;;10.24;72.99;96657.00;4975203;28;20051;-78
2023/12/29 08:15:27;;;;;;;2.38;1.40;;;;;;;10.26;72.98;96652.41;4975312;28;20058;-78
2023/12/29 08:17:55;;;;;;;1.95;1.10;;;;;;;10.30;73.96;96639.88;4975299;28;20133;-78
2023/12/29 08:20:24;;;;;;;1.42;1.33;;;;;;;10.37;74.00;96651.22;4975672;28;20057;-78
2023/12/29 08:22:51;;;;;;;1.58;1.33;;;;;;;10.43;74.98;96645.28;4975891;28;20078;-78
2023/12/29 08:25:19;;;;;;;1.60;1.50;;;;;;;10.48;73.98;96644.75;4975611;28;20074;-79
2023/12/29 08:27:48;;;;;;;1.67;1.40;;;;;;;10.51;72.76;96654.81;4975150;28;20098;-78
2023/12/29 08:30:15;;;;;;;1.30;1.20;;;;;;;10.55;73.43;96650.03;4975362;28;20051;-78
2023/12/29 08:32:43;;;;;;;2.88;1.80;;;;;;;10.62;72.98;96651.75;4975094;28;20051;-78
2023/12/29 08:35:11;;;;;;;2.10;1.50;;;;;;;10.69;72.41;96646.59;4975683;28;20086;-79
2023/12/29 08:37:39;;;;;;;2.80;1.95;;;;;;;10.74;72.45;96661.75;4975066;28;20073;-79
2023/12/29 08:40:07;;;;;;;1.80;1.60;;;;;;;10.76;72.25;96663.19;4974737;28;20118;-78
2023/12/29 08:42:35;;;;;;;1.30;1.20;;;;;;;10.78;73.36;96658.59;4974460;28;20051;-78
2023/12/29 08:45:05;;;;;;;1.00;1.00;;;;;;;10.79;72.49;96665.41;4974855;28;20054;-79
2023/12/29 08:47:33;;;;;;;3.80;1.63;;;;;;;10.78;71.24;96673.41;4975244;28;20093;-78
2023/12/29 08:50:01;;;;;;;12.95;6.82;;;;;;;10.79;71.93;96673.25;4974915;28;20105;-78
2023/12/29 08:52:29;;;;;;;10.95;6.28;;;;;;;10.81;72.85;96673.88;4974243;28;20054;-79
2023/12/29 08:54:56;;;;;;;2.03;1.52;;;;;;;10.82;72.84;96664.22;4974751;28;20412;-78
2023/12/29 08:57:24;;;;;;;1.30;1.20;;;;;;;10.82;72.05;96656.41;4974324;28;20168;-79
2023/12/29 08:59:52;;;;;;;1.60;1.30;;;;;;;10.84;73.01;96662.25;4974492;28;20141;-78
2023/12/29 09:02:21;;;;;;;1.60;1.50;;;;;;;10.89;71.67;96659.94;4973947;28;20079;-79
2023/12/29 09:04:48;;;;;;;0.82;0.75;;;;;;;10.96;71.70;96660.81;4975045;28;20138;-79
2023/12/29 09:07:16;;;;;;;1.23;1.00;;;;;;;11.01;71.90;96674.13;4975477;28;20125;-79
2023/12/29 09:09:43;;;;;;;1.65;1.40;;;;;;;11.03;71.24;96672.13;4996239;28;20047;-79
2023/12/29 09:12:11;;;;;;;1.15;1.05;;;;;;;11.03;71.78;96677.34;4994424;28;20047;-79
2023/12/29 09:14:39;;;;;;;1.10;1.00;;;;;;;11.04;70.54;96667.72;4994287;28;20055;-79
2023/12/29 09:17:06;;;;;;;1.52;1.17;;;;;;;11.03;70.60;96666.09;4982032;28;20110;-79
2023/12/29 09:19:35;;;;;;;1.13;1.02;;;;;;;11.04;70.07;96679.00;4977763;28;20106;-79
2023/12/29 09:22:07;;;;;;;2.08;1.30;;;;;;;11.05;69.71;96670.16;4977494;28;20061;-79
2023/12/29 09:24:35;;;;;;;9.43;6.15;;;;;;;11.04;70.42;96678.16;4976537;28;20189;-79
2023/12/29 09:27:03;;;;;;;10.68;7.50;;;;;;;11.04;70.22;96667.72;4975836;28;20089;-79
2023/12/29 09:29:30;;;;;;;8.07;5.55;;;;;;;11.06;70.76;96671.78;4975744;28;20082;-78
2023/12/29 09:31:58;;;;;;;6.85;4.22;;;;;;;11.07;69.82;96667.38;4974440;28;20111;-79
2023/12/29 09:34:25;;;;;;;2.75;1.80;;;;;;;11.06;70.06;96682.22;4974478;28;20145;-79
2023/12/29 09:36:54;;;;;;;2.85;1.38;;;;;;;11.06;70.29;96681.41;4974164;28;20531;-79
2023/12/29 09:39:22;;;;;;;2.22;1.30;;;;;;;11.05;70.43;96685.81;4974201;28;20046;-79
2023/12/29 09:41:52;;;;;;;2.22;1.10;;;;;;;11.04;69.80;96672.94;4973676;28;20101;-79
2023/12/29 09:44:21;;;;;;;1.73;1.40;;;;;;;11.08;71.06;96687.25;4973912;28;20053;-79
2023/12/29 09:46:51;;;;;;;0.90;0.90;;;;;;;11.10;70.90;96686.06;4974340;28;20359;-79
2023/12/29 09:49:20;;;;;;;0.93;0.90;;;;;;;11.12;70.24;96693.72;4973657;28;20055;-79
2023/12/29 09:51:49;;;;;;;1.52;1.20;;;;;;;11.13;70.22;96685.72;4973234;28;20559;-79
2023/12/29 09:54:18;;;;;;;1.20;1.10;;;;;;;11.16;70.80;96691.56;4973541;28;20492;-79
2023/12/29 09:56:46;;;;;;;1.20;1.20;;;;;;;11.14;69.86;96682.09;4974186;28;20145;-79
2023/12/29 09:59:15;;;;;;;1.52;1.20;;;;;;;11.16;70.30;96688.94;4974334;28;20484;-78
2023/12/29 10:01:45;;;;;;;14.27;9.85;;;;;;;11.18;70.90;96692.19;4973449;28;20050;-79
2023/12/29 10:04:14;;;;;;;20.88;12.85;;;;;;;11.20;71.20;96690.22;4973831;28;20047;-79
2023/12/29 10:06:46;;;;;;;2.95;2.15;;;;;;;11.19;71.17;96683.34;4973479;28;20505;-79
2023/12/29 10:09:20;;;;;;;4.78;2.65;;;;;;;11.19;71.32;96688.56;4974144;28;20089;-79
2023/12/29 10:11:49;;;;;;;2.50;2.05;;;;;;;11.21;70.73;96681.38;4975926;28;20050;-79
2023/12/29 10:14:31;;;;;;;4.55;3.15;;;;;;;11.24;71.79;96683.59;4978846;28;20572;-79
2023/12/29 10:17:04;;;;;;;3.73;2.67;;;;;;;11.26;70.70;96681.63;4978687;28;20051;-79
2023/12/29 10:19:40;;;;;;;2.65;1.75;;;;;;;11.27;70.56;96684.06;4977595;28;20280;-79
2023/12/29 10:22:15;;;;;;;2.45;1.27;;;;;;;11.28;70.39;96674.41;4977333;28;20054;-79
2023/12/29 10:24:45;;;;;;;1.77;1.23;;;;;;;11.28;70.36;96663.97;4977371;28;20051;-79
2023/12/29 10:27:13;;;;;;;1.58;1.42;;;;;;;11.27;69.83;96672.81;4988653;28;20054;-79
2023/12/29 10:29:41;;;;;;;1.50;1.40;;;;;;;11.26;70.34;96668.56;4996010;28;20050;-79
2023/12/29 10:32:09;;;;;;;2.20;1.38;;;;;;;11.26;70.39;96665.94;4995678;28;20106;-79
2023/12/29 10:34:37;;;;;;;1.42;1.33;;;;;;;11.27;71.14;96657.16;4984648;28;20047;-79
2023/12/29 10:37:09;;;;;;;1.50;1.40;;;;;;;11.28;71.43;96653.53;4978581;28;20516;-79
2023/12/29 10:39:37;;;;;;;2.15;1.40;;;;;;;11.24;70.32;96647.88;4978176;28;20058;-79
2023/12/29 10:42:07;;;;;;;1.50;1.30;;;;;;;11.22;70.99;96647.25;4977421;28;20092;-78
2023/12/29 10:44:35;;;;;;;1.23;1.13;;;;;;;11.27;72.16;96646.69;4977080;28;20047;-79
2023/12/29 10:47:09;;;;;;;1.35;1.00;;;;;;;11.36;71.76;96648.19;4977179;28;20504;-79
2023/12/29 10:49:37;;;;;;;1.27;1.17;;;;;;;11.45;72.32;96641.84;4976950;28;20046;-79
2023/12/29 10:52:13;;;;;;;1.42;1.17;;;;;;;11.51;72.05;96632.47;4976650;28;20093;-79
2023/12/29 10:54:41;;;;;;;2.33;1.20;;;;;;;11.58;71.16;96638.56;4977265;28;20048;-79
2023/12/29 10:57:11;;;;;;;1.88;1.33;;;;;;;11.68;70.26;96638.25;4976708;28;20055;-79
2023/12/29 10:59:39;;;;;;;2.22;0.90;;;;;;;11.78;70.16;96620.44;4976822;28;20051;-79
2023/12/29 11:02:08;;;;;;;2.03;1.17;;;;;;;11.84;68.79;96627.53;4976380;28;20061;-79
2023/12/29 11:04:36;;;;;;;1.08;0.82;;;;;;;11.88;68.49;96628.81;4976274;28;20110;-79
2023/12/29 11:07:04;;;;;;;31.70;19.00;;;;;;;11.88;67.59;96622.78;4976780;28;20051;-79
2023/12/29 11:09:33;;;;;;;16.17;10.55;;;;;;;11.89;67.92;96622.56;4976868;28;20105;-79
2023/12/29 11:12:03;;;;;;;6.47;3.63;;;;;;;11.89;68.16;96625.19;4976757;28;20082;-78
2023/12/29 11:14:32;;;;;;;2.63;1.50;;;;;;;11.89;67.71;96629.59;4977335;28;20082;-79
2023/12/29 11:17:01;;;;;;;2.03;1.02;;;;;;;11.86;68.48;96615.09;4976863;28;20050;-79
2023/12/29 11:19:29;;;;;;;1.75;1.38;;;;;;;11.89;68.64;96614.72;4976773;28;20078;-79
2023/12/29 11:21:57;;;;;;;1.15;1.05;;;;;;;11.91;67.90;96619.78;4976324;28;20137;-79
2023/12/29 11:24:25;;;;;;;0.95;0.95;;;;;;;11.91;66.99;96607.50;4976414;28;20471;-79
2023/12/29 11:27:05;;;;;;;1.00;0.90;;;;;;;11.93;66.59;96615.16;4975995;28;20051;-79
2023/12/29 11:29:35;;;;;;;1.95;1.55;;;;;;;11.91;65.74;96607.50;4976959;28;20085;-79
2023/12/29 11:32:06;;;;;;;10.15;5.32;;;;;;;11.92;66.47;96608.34;4976611;28;20507;-79
2023/12/29 11:34:38;;;;;;;1.77;1.08;;;;;;;11.97;68.54;96611.19;4977290;28;20134;-79
2023/12/29 11:37:19;;;;;;;0.85;0.70;;;;;;;12.06;65.64;96611.84;4976330;28;20133;-79
2023/12/29 11:39:52;;;;;;;2.13;1.00;;;;;;;12.12;66.71;96609.28;4976250;28;20055;-79
2023/12/29 11:42:23;;;;;;;2.15;1.00;;;;;;;12.21;67.10;96602.09;4975929;28;20504;-79
2023/12/29 11:44:52;;;;;;;0.77;0.77;;;;;;;12.33;66.29;96600.56;4976759;28;20137;-79